Trenton, MO

2:53 PM CST on December 17, 2014 (GMT -0600)
trenton mo | Change Station
CLOSE
Current Station
Personal Weather Station
Location: Trenton, MO
Elevation: 850 ft
Nearby Weather Stations

Elev 850 ft 40.07 °N, 93.61 °W | Updated 2 seconds ago

Partly Cloudy
Partly Cloudy
28.4 °F
Feels Like 25 °F
N
3.5
Wind Variable Wind from NE
Gusts 3.5 mph

Today
High -- | Low -- °F
--% Chance of Precip.
Yesterday
High -- | Low -- °F
Precip. -- in
7:30 AM 4:50 PM
Waning Crescent, 20% visible
Pressure 30.33 in
Visibility 10.0 miles
Clouds Mostly Cloudy 9000 ft
Windchill 25 °F
Dew Point 20 °F
Humidity 72%
Rainfall 0.00 in
Snow Depth Not available.
UV 1 out of 12
Pollen .10 out of 12
Air Quality Not available.
Flu Activity Not available.
METAR KLWD 171953Z AUTO 20007KT 10SM BKN090 M03/M08 A3028 RMK AO2 SLP271 T10281083

More Conditions Fewer Conditions

Pressure 30.33 in
Visibility 10.0 miles
Clouds Mostly Cloudy 9000 ft
Windchill 25 °F
Dew Point 20 °F
Humidity 72%
Rainfall 0.00 in
Snow Depth Not available.
UV 1 out of 12
Pollen .10 out of 12
Air Quality Not available.
Flu Activity Not available.
METAR KLWD 171953Z AUTO 20007KT 10SM BKN090 M03/M08 A3028 RMK AO2 SLP271 T10281083

More Conditions Fewer Conditions

10-Day Weather Forecast

Almanac

Astronomy

Dec. 17, 2014 Rise Set
Actual Time
Civil Twilight
Nautical Twilight
Astronomical Twilight
Moon
Length of Visible Light
Length of Day
Tomorrow will be .
, % of the Moon is Illuminated

Today's Extremes

State Highs State Lows

Community

WunderPhotos

Upload Photos

1,778,803 photos uploaded!

WunderBlogs® & News

Nearby

Air Quality

  Air Quality AQ Index Pollutant
Not available.

Snow Depth

Station Depth Elevation

Earthquake Activity

City Distance Mag. Time & Date
Minimum magnitude displayed is 2.5.

Coastal Water Temperatures

Place Temperature

Nearby Weather Stations